sensor_id;sensor_type;location;lat;lon;timestamp;P1;durP1;ratioP1;P2;durP2;ratioP2
5742;SDS011;2896;53.500;10.020;2022-08-05T00:00:39;24.80;;;12.87;;
5742;SDS011;2896;53.500;10.020;2022-08-05T00:03:07;36.27;;;12.03;;
5742;SDS011;2896;53.500;10.020;2022-08-05T00:05:33;32.80;;;11.97;;
5742;SDS011;2896;53.500;10.020;2022-08-05T00:08:00;18.90;;;9.80;;
5742;SDS011;2896;53.500;10.020;2022-08-05T00:10:26;21.23;;;10.23;;
5742;SDS011;2896;53.500;10.020;2022-08-05T00:12:53;18.03;;;9.13;;
5742;SDS011;2896;53.500;10.020;2022-08-05T00:15:20;40.10;;;9.17;;
5742;SDS011;2896;53.500;10.020;2022-08-05T00:17:47;14.23;;;8.13;;
5742;SDS011;2896;53.500;10.020;2022-08-05T00:20:15;21.07;;;9.00;;
5742;SDS011;2896;53.500;10.020;2022-08-05T00:22:42;13.63;;;7.77;;
5742;SDS011;2896;53.500;10.020;2022-08-05T00:25:08;10.63;;;6.77;;
5742;SDS011;2896;53.500;10.020;2022-08-05T00:27:35;19.03;;;7.30;;
5742;SDS011;2896;53.500;10.020;2022-08-05T00:30:02;15.47;;;6.70;;
5742;SDS011;2896;53.500;10.020;2022-08-05T00:32:29;15.20;;;7.47;;
5742;SDS011;2896;53.500;10.020;2022-08-05T00:34:56;9.50;;;6.73;;
5742;SDS011;2896;53.500;10.020;2022-08-05T00:37:24;7.90;;;6.23;;
5742;SDS011;2896;53.500;10.020;2022-08-05T00:39:50;13.10;;;5.30;;
5742;SDS011;2896;53.500;10.020;2022-08-05T00:42:27;12.10;;;6.30;;
5742;SDS011;2896;53.500;10.020;2022-08-05T00:44:55;7.27;;;5.67;;
5742;SDS011;2896;53.500;10.020;2022-08-05T00:47:21;10.33;;;5.47;;
5742;SDS011;2896;53.500;10.020;2022-08-05T00:49:48;13.07;;;5.57;;
5742;SDS011;2896;53.500;10.020;2022-08-05T00:52:15;10.53;;;4.57;;
5742;SDS011;2896;53.500;10.020;2022-08-05T00:54:43;7.33;;;4.60;;
5742;SDS011;2896;53.500;10.020;2022-08-05T00:57:09;23.53;;;4.97;;
5742;SDS011;2896;53.500;10.020;2022-08-05T00:59:36;5.93;;;4.13;;
5742;SDS011;2896;53.500;10.020;2022-08-05T01:02:03;9.53;;;4.13;;
5742;SDS011;2896;53.500;10.020;2022-08-05T01:04:29;9.93;;;4.00;;
5742;SDS011;2896;53.500;10.020;2022-08-05T01:06:56;10.63;;;4.27;;
5742;SDS011;2896;53.500;10.020;2022-08-05T01:09:23;7.73;;;3.97;;
5742;SDS011;2896;53.500;10.020;2022-08-05T01:11:52;7.07;;;4.50;;
5742;SDS011;2896;53.500;10.020;2022-08-05T01:14:24;3.63;;;3.33;;
5742;SDS011;2896;53.500;10.020;2022-08-05T01:16:56;5.43;;;3.60;;
5742;SDS011;2896;53.500;10.020;2022-08-05T01:19:30;5.10;;;3.60;;
5742;SDS011;2896;53.500;10.020;2022-08-05T01:22:10;9.60;;;4.10;;
5742;SDS011;2896;53.500;10.020;2022-08-05T01:25:08;5.60;;;3.43;;
5742;SDS011;2896;53.500;10.020;2022-08-05T01:28:12;7.80;;;3.37;;
5742;SDS011;2896;53.500;10.020;2022-08-05T01:30:50;10.40;;;3.97;;
5742;SDS011;2896;53.500;10.020;2022-08-05T01:33:20;3.40;;;3.10;;
5742;SDS011;2896;53.500;10.020;2022-08-05T01:35:53;6.53;;;3.07;;
5742;SDS011;2896;53.500;10.020;2022-08-05T01:38:22;10.40;;;3.20;;
5742;SDS011;2896;53.500;10.020;2022-08-05T01:40:50;7.60;;;3.10;;
5742;SDS011;2896;53.500;10.020;2022-08-05T01:43:20;3.57;;;3.23;;
5742;SDS011;2896;53.500;10.020;2022-08-05T01:45:48;3.53;;;2.93;;
5742;SDS011;2896;53.500;10.020;2022-08-05T01:48:15;4.80;;;2.90;;
5742;SDS011;2896;53.500;10.020;2022-08-05T01:50:43;7.27;;;3.40;;
5742;SDS011;2896;53.500;10.020;2022-08-05T01:53:11;5.77;;;3.87;;
5742;SDS011;2896;53.500;10.020;2022-08-05T01:55:39;5.10;;;2.50;;
5742;SDS011;2896;53.500;10.020;2022-08-05T01:58:08;3.63;;;3.17;;
5742;SDS011;2896;53.500;10.020;2022-08-05T02:00:40;5.50;;;3.10;;
5742;SDS011;2896;53.500;10.020;2022-08-05T02:03:10;4.07;;;3.23;;
5742;SDS011;2896;53.500;10.020;2022-08-05T02:05:39;9.67;;;3.67;;
5742;SDS011;2896;53.500;10.020;2022-08-05T02:08:08;6.57;;;3.43;;
5742;SDS011;2896;53.500;10.020;2022-08-05T02:10:35;3.30;;;3.00;;
5742;SDS011;2896;53.500;10.020;2022-08-05T02:13:07;3.17;;;2.90;;
5742;SDS011;2896;53.500;10.020;2022-08-05T02:15:40;3.17;;;2.83;;
5742;SDS011;2896;53.500;10.020;2022-08-05T02:18:11;3.10;;;2.87;;
5742;SDS011;2896;53.500;10.020;2022-08-05T02:20:45;8.47;;;4.00;;
5742;SDS011;2896;53.500;10.020;2022-08-05T02:23:15;4.13;;;3.00;;
5742;SDS011;2896;53.500;10.020;2022-08-05T02:25:46;3.90;;;3.57;;
5742;SDS011;2896;53.500;10.020;2022-08-05T02:28:18;5.40;;;2.80;;
5742;SDS011;2896;53.500;10.020;2022-08-05T02:30:52;5.17;;;3.00;;
5742;SDS011;2896;53.500;10.020;2022-08-05T02:33:22;4.07;;;3.50;;
5742;SDS011;2896;53.500;10.020;2022-08-05T02:35:50;4.83;;;2.63;;
5742;SDS011;2896;53.500;10.020;2022-08-05T02:38:20;3.90;;;3.50;;
5742;SDS011;2896;53.500;10.020;2022-08-05T02:40:48;8.30;;;2.93;;
5742;SDS011;2896;53.500;10.020;2022-08-05T02:43:16;4.43;;;3.00;;
5742;SDS011;2896;53.500;10.020;2022-08-05T02:45:45;5.30;;;3.50;;
5742;SDS011;2896;53.500;10.020;2022-08-05T02:48:14;4.60;;;3.50;;
5742;SDS011;2896;53.500;10.020;2022-08-05T02:50:42;4.47;;;3.13;;
5742;SDS011;2896;53.500;10.020;2022-08-05T02:53:12;6.53;;;3.87;;
5742;SDS011;2896;53.500;10.020;2022-08-05T02:55:40;14.30;;;4.50;;
5742;SDS011;2896;53.500;10.020;2022-08-05T02:58:07;11.03;;;4.63;;
5742;SDS011;2896;53.500;10.020;2022-08-05T03:00:34;10.77;;;4.80;;
5742;SDS011;2896;53.500;10.020;2022-08-05T03:03:03;7.50;;;4.23;;
5742;SDS011;2896;53.500;10.020;2022-08-05T03:05:32;10.40;;;4.50;;
5742;SDS011;2896;53.500;10.020;2022-08-05T03:07:59;4.67;;;3.50;;
5742;SDS011;2896;53.500;10.020;2022-08-05T03:10:26;8.93;;;4.23;;
5742;SDS011;2896;53.500;10.020;2022-08-05T03:12:53;4.13;;;3.30;;
5742;SDS011;2896;53.500;10.020;2022-08-05T03:15:20;15.63;;;4.00;;
5742;SDS011;2896;53.500;10.020;2022-08-05T03:17:47;6.33;;;4.43;;
5742;SDS011;2896;53.500;10.020;2022-08-05T03:20:13;5.70;;;3.93;;
5742;SDS011;2896;53.500;10.020;2022-08-05T03:22:41;7.07;;;3.83;;
5742;SDS011;2896;53.500;10.020;2022-08-05T03:25:08;9.87;;;4.20;;
5742;SDS011;2896;53.500;10.020;2022-08-05T03:27:36;5.90;;;3.80;;
5742;SDS011;2896;53.500;10.020;2022-08-05T03:30:03;4.90;;;3.93;;
5742;SDS011;2896;53.500;10.020;2022-08-05T03:32:31;8.40;;;4.97;;
5742;SDS011;2896;53.500;10.020;2022-08-05T03:34:58;6.93;;;4.33;;
5742;SDS011;2896;53.500;10.020;2022-08-05T03:37:24;21.27;;;4.50;;
5742;SDS011;2896;53.500;10.020;2022-08-05T03:39:56;7.73;;;4.50;;
5742;SDS011;2896;53.500;10.020;2022-08-05T03:42:24;6.93;;;4.47;;
5742;SDS011;2896;53.500;10.020;2022-08-05T03:44:50;5.20;;;4.40;;
5742;SDS011;2896;53.500;10.020;2022-08-05T03:47:17;7.50;;;4.33;;
5742;SDS011;2896;53.500;10.020;2022-08-05T03:49:44;11.57;;;4.37;;
5742;SDS011;2896;53.500;10.020;2022-08-05T03:52:12;4.57;;;4.00;;
5742;SDS011;2896;53.500;10.020;2022-08-05T03:54:44;14.00;;;3.90;;
5742;SDS011;2896;53.500;10.020;2022-08-05T03:57:19;3.53;;;3.23;;
5742;SDS011;2896;53.500;10.020;2022-08-05T03:59:50;18.30;;;3.93;;
5742;SDS011;2896;53.500;10.020;2022-08-05T04:02:21;13.30;;;3.77;;
5742;SDS011;2896;53.500;10.020;2022-08-05T04:04:50;4.70;;;3.70;;
5742;SDS011;2896;53.500;10.020;2022-08-05T04:07:17;19.87;;;5.10;;
5742;SDS011;2896;53.500;10.020;2022-08-05T04:09:44;3.40;;;3.20;;
5742;SDS011;2896;53.500;10.020;2022-08-05T04:12:11;9.00;;;4.33;;
5742;SDS011;2896;53.500;10.020;2022-08-05T04:14:39;7.37;;;4.33;;
5742;SDS011;2896;53.500;10.020;2022-08-05T04:17:07;10.23;;;4.60;;
5742;SDS011;2896;53.500;10.020;2022-08-05T04:19:39;5.07;;;3.90;;
5742;SDS011;2896;53.500;10.020;2022-08-05T04:22:06;4.80;;;4.00;;
5742;SDS011;2896;53.500;10.020;2022-08-05T04:24:33;13.90;;;3.63;;
5742;SDS011;2896;53.500;10.020;2022-08-05T04:27:00;8.27;;;3.90;;
5742;SDS011;2896;53.500;10.020;2022-08-05T04:29:26;4.43;;;4.10;;
5742;SDS011;2896;53.500;10.020;2022-08-05T04:31:54;5.00;;;3.90;;
5742;SDS011;2896;53.500;10.020;2022-08-05T04:34:21;4.87;;;3.73;;
5742;SDS011;2896;53.500;10.020;2022-08-05T04:36:48;6.80;;;4.43;;
5742;SDS011;2896;53.500;10.020;2022-08-05T04:39:14;4.60;;;4.20;;
5742;SDS011;2896;53.500;10.020;2022-08-05T04:41:41;5.77;;;4.70;;
5742;SDS011;2896;53.500;10.020;2022-08-05T04:44:07;16.20;;;5.40;;
5742;SDS011;2896;53.500;10.020;2022-08-05T04:46:34;9.27;;;4.83;;
5742;SDS011;2896;53.500;10.020;2022-08-05T04:49:02;11.47;;;5.40;;
5742;SDS011;2896;53.500;10.020;2022-08-05T04:51:29;15.83;;;5.60;;
5742;SDS011;2896;53.500;10.020;2022-08-05T04:53:56;8.00;;;5.33;;
5742;SDS011;2896;53.500;10.020;2022-08-05T04:56:23;11.87;;;5.67;;
5742;SDS011;2896;53.500;10.020;2022-08-05T04:58:50;6.07;;;4.93;;
5742;SDS011;2896;53.500;10.020;2022-08-05T05:01:16;8.40;;;4.70;;
5742;SDS011;2896;53.500;10.020;2022-08-05T05:03:43;7.40;;;5.00;;
5742;SDS011;2896;53.500;10.020;2022-08-05T05:06:11;7.60;;;5.10;;
5742;SDS011;2896;53.500;10.020;2022-08-05T05:08:38;8.80;;;5.53;;
5742;SDS011;2896;53.500;10.020;2022-08-05T05:11:05;8.90;;;5.90;;
5742;SDS011;2896;53.500;10.020;2022-08-05T05:13:32;24.63;;;4.93;;
5742;SDS011;2896;53.500;10.020;2022-08-05T05:15:59;7.17;;;4.50;;
5742;SDS011;2896;53.500;10.020;2022-08-05T05:18:26;13.23;;;5.90;;
5742;SDS011;2896;53.500;10.020;2022-08-05T05:20:52;5.97;;;5.17;;
5742;SDS011;2896;53.500;10.020;2022-08-05T05:23:20;6.77;;;5.37;;
5742;SDS011;2896;53.500;10.020;2022-08-05T05:25:47;4.77;;;4.37;;
5742;SDS011;2896;53.500;10.020;2022-08-05T05:28:13;7.40;;;6.10;;
5742;SDS011;2896;53.500;10.020;2022-08-05T05:30:40;8.47;;;5.53;;
5742;SDS011;2896;53.500;10.020;2022-08-05T05:33:07;7.83;;;5.10;;
5742;SDS011;2896;53.500;10.020;2022-08-05T05:35:34;12.27;;;5.70;;
5742;SDS011;2896;53.500;10.020;2022-08-05T05:38:01;15.73;;;5.50;;
5742;SDS011;2896;53.500;10.020;2022-08-05T05:40:30;5.40;;;4.90;;
5742;SDS011;2896;53.500;10.020;2022-08-05T05:42:57;5.10;;;4.60;;
5742;SDS011;2896;53.500;10.020;2022-08-05T05:45:24;5.20;;;4.67;;
5742;SDS011;2896;53.500;10.020;2022-08-05T05:47:51;6.30;;;4.90;;
5742;SDS011;2896;53.500;10.020;2022-08-05T05:50:18;6.80;;;4.67;;
5742;SDS011;2896;53.500;10.020;2022-08-05T05:52:45;5.93;;;4.73;;
5742;SDS011;2896;53.500;10.020;2022-08-05T05:55:12;5.67;;;4.33;;
5742;SDS011;2896;53.500;10.020;2022-08-05T05:57:42;5.13;;;4.67;;
5742;SDS011;2896;53.500;10.020;2022-08-05T06:00:10;7.97;;;4.30;;
5742;SDS011;2896;53.500;10.020;2022-08-05T06:02:38;4.57;;;3.93;;
5742;SDS011;2896;53.500;10.020;2022-08-05T06:05:05;11.30;;;5.10;;
5742;SDS011;2896;53.500;10.020;2022-08-05T06:07:33;9.03;;;3.93;;
5742;SDS011;2896;53.500;10.020;2022-08-05T06:10:00;7.60;;;4.30;;
5742;SDS011;2896;53.500;10.020;2022-08-05T06:12:26;4.33;;;3.60;;
5742;SDS011;2896;53.500;10.020;2022-08-05T06:14:54;7.97;;;5.00;;
5742;SDS011;2896;53.500;10.020;2022-08-05T06:17:21;4.90;;;4.40;;
5742;SDS011;2896;53.500;10.020;2022-08-05T06:19:48;10.13;;;4.23;;
5742;SDS011;2896;53.500;10.020;2022-08-05T06:22:21;4.73;;;3.97;;
5742;SDS011;2896;53.500;10.020;2022-08-05T06:24:49;7.07;;;4.47;;
5742;SDS011;2896;53.500;10.020;2022-08-05T06:27:16;6.23;;;3.83;;
5742;SDS011;2896;53.500;10.020;2022-08-05T06:29:43;15.53;;;3.40;;
5742;SDS011;2896;53.500;10.020;2022-08-05T06:32:11;4.00;;;3.70;;
5742;SDS011;2896;53.500;10.020;2022-08-05T06:34:38;8.47;;;4.17;;
5742;SDS011;2896;53.500;10.020;2022-08-05T06:37:05;11.13;;;4.50;;
5742;SDS011;2896;53.500;10.020;2022-08-05T06:39:32;11.53;;;3.77;;
5742;SDS011;2896;53.500;10.020;2022-08-05T06:41:59;6.40;;;3.60;;
5742;SDS011;2896;53.500;10.020;2022-08-05T06:44:27;5.83;;;4.90;;
5742;SDS011;2896;53.500;10.020;2022-08-05T06:46:54;5.53;;;3.63;;
5742;SDS011;2896;53.500;10.020;2022-08-05T06:49:22;4.93;;;3.83;;
5742;SDS011;2896;53.500;10.020;2022-08-05T06:51:50;6.20;;;3.67;;
5742;SDS011;2896;53.500;10.020;2022-08-05T06:54:17;7.83;;;3.90;;
5742;SDS011;2896;53.500;10.020;2022-08-05T06:56:43;16.10;;;4.00;;
5742;SDS011;2896;53.500;10.020;2022-08-05T06:59:10;6.20;;;3.90;;
5742;SDS011;2896;53.500;10.020;2022-08-05T07:01:38;8.90;;;3.43;;
5742;SDS011;2896;53.500;10.020;2022-08-05T07:04:05;4.60;;;3.53;;
5742;SDS011;2896;53.500;10.020;2022-08-05T07:06:33;5.07;;;3.60;;
5742;SDS011;2896;53.500;10.020;2022-08-05T07:09:00;5.17;;;3.20;;
5742;SDS011;2896;53.500;10.020;2022-08-05T07:11:27;4.97;;;4.10;;
5742;SDS011;2896;53.500;10.020;2022-08-05T07:13:54;4.87;;;4.03;;
5742;SDS011;2896;53.500;10.020;2022-08-05T07:16:39;5.27;;;3.50;;
5742;SDS011;2896;53.500;10.020;2022-08-05T07:19:15;5.27;;;3.50;;
5742;SDS011;2896;53.500;10.020;2022-08-05T07:21:43;3.27;;;2.97;;
5742;SDS011;2896;53.500;10.020;2022-08-05T07:24:10;7.97;;;3.37;;
5742;SDS011;2896;53.500;10.020;2022-08-05T07:26:37;5.43;;;3.20;;
5742;SDS011;2896;53.500;10.020;2022-08-05T07:29:03;4.20;;;3.20;;
5742;SDS011;2896;53.500;10.020;2022-08-05T07:31:30;8.93;;;3.53;;
5742;SDS011;2896;53.500;10.020;2022-08-05T07:33:57;5.30;;;3.53;;
5742;SDS011;2896;53.500;10.020;2022-08-05T07:36:23;3.57;;;3.27;;
5742;SDS011;2896;53.500;10.020;2022-08-05T07:38:51;16.60;;;3.50;;
5742;SDS011;2896;53.500;10.020;2022-08-05T07:41:19;4.27;;;3.43;;
5742;SDS011;2896;53.500;10.020;2022-08-05T07:43:46;4.00;;;3.10;;
5742;SDS011;2896;53.500;10.020;2022-08-05T07:46:13;3.73;;;3.20;;
5742;SDS011;2896;53.500;10.020;2022-08-05T07:48:40;6.73;;;3.30;;
5742;SDS011;2896;53.500;10.020;2022-08-05T07:51:07;6.20;;;3.43;;
5742;SDS011;2896;53.500;10.020;2022-08-05T07:53:34;3.10;;;2.90;;
5742;SDS011;2896;53.500;10.020;2022-08-05T07:56:02;7.87;;;3.20;;
5742;SDS011;2896;53.500;10.020;2022-08-05T07:58:29;3.57;;;2.90;;
5742;SDS011;2896;53.500;10.020;2022-08-05T08:00:56;3.67;;;2.80;;
5742;SDS011;2896;53.500;10.020;2022-08-05T08:03:23;4.00;;;3.60;;
5742;SDS011;2896;53.500;10.020;2022-08-05T08:05:49;14.67;;;4.10;;
5742;SDS011;2896;53.500;10.020;2022-08-05T08:08:16;3.57;;;3.33;;
5742;SDS011;2896;53.500;10.020;2022-08-05T08:10:43;3.80;;;3.10;;
5742;SDS011;2896;53.500;10.020;2022-08-05T08:13:12;4.17;;;2.87;;
5742;SDS011;2896;53.500;10.020;2022-08-05T08:15:38;4.10;;;3.47;;
5742;SDS011;2896;53.500;10.020;2022-08-05T08:18:05;4.07;;;3.23;;
5742;SDS011;2896;53.500;10.020;2022-08-05T08:20:32;4.37;;;3.37;;
5742;SDS011;2896;53.500;10.020;2022-08-05T08:22:59;7.77;;;3.90;;
5742;SDS011;2896;53.500;10.020;2022-08-05T08:25:26;5.53;;;3.93;;
5742;SDS011;2896;53.500;10.020;2022-08-05T08:27:53;3.20;;;2.93;;
5742;SDS011;2896;53.500;10.020;2022-08-05T08:30:21;8.90;;;4.60;;
5742;SDS011;2896;53.500;10.020;2022-08-05T08:32:48;10.60;;;3.87;;
5742;SDS011;2896;53.500;10.020;2022-08-05T08:35:14;5.87;;;3.50;;
5742;SDS011;2896;53.500;10.020;2022-08-05T08:37:41;6.03;;;4.00;;
5742;SDS011;2896;53.500;10.020;2022-08-05T08:40:08;3.40;;;3.10;;
5742;SDS011;2896;53.500;10.020;2022-08-05T08:42:36;7.57;;;3.53;;
5742;SDS011;2896;53.500;10.020;2022-08-05T08:45:04;6.37;;;4.70;;
5742;SDS011;2896;53.500;10.020;2022-08-05T08:47:33;4.80;;;4.20;;
5742;SDS011;2896;53.500;10.020;2022-08-05T08:50:02;7.03;;;4.73;;
5742;SDS011;2896;53.500;10.020;2022-08-05T08:52:30;8.00;;;4.37;;
5742;SDS011;2896;53.500;10.020;2022-08-05T08:54:58;5.17;;;4.37;;
5742;SDS011;2896;53.500;10.020;2022-08-05T08:57:25;10.53;;;3.70;;
5742;SDS011;2896;53.500;10.020;2022-08-05T08:59:52;4.30;;;3.63;;
5742;SDS011;2896;53.500;10.020;2022-08-05T09:02:19;10.60;;;3.30;;
5742;SDS011;2896;53.500;10.020;2022-08-05T09:04:47;4.13;;;3.30;;
5742;SDS011;2896;53.500;10.020;2022-08-05T09:07:14;3.30;;;3.10;;
5742;SDS011;2896;53.500;10.020;2022-08-05T09:09:41;4.40;;;2.80;;
5742;SDS011;2896;53.500;10.020;2022-08-05T09:12:08;3.00;;;2.80;;
5742;SDS011;2896;53.500;10.020;2022-08-05T09:14:35;3.83;;;3.53;;
5742;SDS011;2896;53.500;10.020;2022-08-05T09:17:04;4.73;;;3.33;;
5742;SDS011;2896;53.500;10.020;2022-08-05T09:19:32;3.67;;;3.43;;
5742;SDS011;2896;53.500;10.020;2022-08-05T09:22:00;3.27;;;3.07;;
5742;SDS011;2896;53.500;10.020;2022-08-05T09:24:27;3.07;;;2.80;;
5742;SDS011;2896;53.500;10.020;2022-08-05T09:26:55;4.40;;;2.97;;
5742;SDS011;2896;53.500;10.020;2022-08-05T09:29:35;3.43;;;3.10;;
5742;SDS011;2896;53.500;10.020;2022-08-05T09:32:04;3.13;;;2.83;;
5742;SDS011;2896;53.500;10.020;2022-08-05T09:37:17;5.03;;;3.10;;
5742;SDS011;2896;53.500;10.020;2022-08-05T09:39:45;4.63;;;3.00;;
5742;SDS011;2896;53.500;10.020;2022-08-05T09:42:12;3.87;;;2.80;;
5742;SDS011;2896;53.500;10.020;2022-08-05T09:44:41;5.30;;;3.20;;
5742;SDS011;2896;53.500;10.020;2022-08-05T09:47:09;3.53;;;3.20;;
5742;SDS011;2896;53.500;10.020;2022-08-05T09:49:41;4.03;;;3.47;;
5742;SDS011;2896;53.500;10.020;2022-08-05T09:52:22;6.70;;;3.70;;
5742;SDS011;2896;53.500;10.020;2022-08-05T09:54:50;10.20;;;3.70;;
5742;SDS011;2896;53.500;10.020;2022-08-05T09:57:27;6.03;;;3.53;;
5742;SDS011;2896;53.500;10.020;2022-08-05T09:59:58;4.20;;;2.80;;
5742;SDS011;2896;53.500;10.020;2022-08-05T10:02:35;3.70;;;2.80;;
5742;SDS011;2896;53.500;10.020;2022-08-05T10:05:07;4.07;;;3.03;;
5742;SDS011;2896;53.500;10.020;2022-08-05T10:07:43;5.03;;;3.07;;
5742;SDS011;2896;53.500;10.020;2022-08-05T10:10:12;3.27;;;2.97;;
5742;SDS011;2896;53.500;10.020;2022-08-05T10:12:39;6.63;;;3.00;;
5742;SDS011;2896;53.500;10.020;2022-08-05T10:15:14;5.63;;;3.40;;
5742;SDS011;2896;53.500;10.020;2022-08-05T10:17:41;5.50;;;3.50;;
5742;SDS011;2896;53.500;10.020;2022-08-05T10:20:08;5.60;;;3.63;;
5742;SDS011;2896;53.500;10.020;2022-08-05T10:22:37;3.70;;;3.40;;
5742;SDS011;2896;53.500;10.020;2022-08-05T10:25:06;7.37;;;2.93;;
5742;SDS011;2896;53.500;10.020;2022-08-05T10:27:33;5.00;;;3.77;;
5742;SDS011;2896;53.500;10.020;2022-08-05T10:30:00;4.47;;;3.60;;
5742;SDS011;2896;53.500;10.020;2022-08-05T10:32:27;5.43;;;3.03;;
5742;SDS011;2896;53.500;10.020;2022-08-05T10:34:55;6.80;;;3.80;;
5742;SDS011;2896;53.500;10.020;2022-08-05T10:37:23;5.07;;;4.20;;
5742;SDS011;2896;53.500;10.020;2022-08-05T10:39:53;3.93;;;3.63;;
5742;SDS011;2896;53.500;10.020;2022-08-05T10:42:24;7.40;;;3.83;;
5742;SDS011;2896;53.500;10.020;2022-08-05T10:44:54;4.10;;;3.27;;
5742;SDS011;2896;53.500;10.020;2022-08-05T10:47:24;3.90;;;3.50;;
5742;SDS011;2896;53.500;10.020;2022-08-05T10:50:00;8.03;;;3.90;;
5742;SDS011;2896;53.500;10.020;2022-08-05T10:52:38;4.30;;;3.07;;
5742;SDS011;2896;53.500;10.020;2022-08-05T10:55:06;3.60;;;3.30;;
5742;SDS011;2896;53.500;10.020;2022-08-05T10:57:36;3.53;;;3.10;;
5742;SDS011;2896;53.500;10.020;2022-08-05T11:00:09;3.83;;;3.27;;
5742;SDS011;2896;53.500;10.020;2022-08-05T11:02:43;3.13;;;2.90;;
5742;SDS011;2896;53.500;10.020;2022-08-05T11:05:36;4.60;;;2.57;;
5742;SDS011;2896;53.500;10.020;2022-08-05T11:08:04;2.70;;;2.50;;
5742;SDS011;2896;53.500;10.020;2022-08-05T11:10:33;2.77;;;2.57;;
5742;SDS011;2896;53.500;10.020;2022-08-05T11:13:03;6.30;;;3.27;;
5742;SDS011;2896;53.500;10.020;2022-08-05T11:15:33;9.73;;;3.07;;
5742;SDS011;2896;53.500;10.020;2022-08-05T11:18:07;4.30;;;2.63;;
5742;SDS011;2896;53.500;10.020;2022-08-05T11:20:48;11.87;;;3.30;;
5742;SDS011;2896;53.500;10.020;2022-08-05T11:23:29;6.27;;;3.20;;
5742;SDS011;2896;53.500;10.020;2022-08-05T11:26:00;5.67;;;3.57;;
5742;SDS011;2896;53.500;10.020;2022-08-05T11:28:46;4.23;;;3.10;;
5742;SDS011;2896;53.500;10.020;2022-08-05T11:31:17;4.17;;;3.03;;
5742;SDS011;2896;53.500;10.020;2022-08-05T11:34:00;8.17;;;3.47;;
5742;SDS011;2896;53.500;10.020;2022-08-05T11:36:42;4.37;;;3.30;;
5742;SDS011;2896;53.500;10.020;2022-08-05T11:39:12;3.63;;;3.03;;
5742;SDS011;2896;53.500;10.020;2022-08-05T11:41:40;7.20;;;3.20;;
5742;SDS011;2896;53.500;10.020;2022-08-05T11:44:15;4.00;;;3.03;;
5742;SDS011;2896;53.500;10.020;2022-08-05T11:46:46;6.63;;;3.10;;
5742;SDS011;2896;53.500;10.020;2022-08-05T11:49:14;9.80;;;3.23;;
5742;SDS011;2896;53.500;10.020;2022-08-05T11:51:44;4.67;;;3.40;;
5742;SDS011;2896;53.500;10.020;2022-08-05T11:54:13;10.90;;;3.60;;
5742;SDS011;2896;53.500;10.020;2022-08-05T11:56:47;4.93;;;2.70;;
5742;SDS011;2896;53.500;10.020;2022-08-05T11:59:17;7.33;;;2.93;;
5742;SDS011;2896;53.500;10.020;2022-08-05T12:01:51;4.13;;;2.90;;
5742;SDS011;2896;53.500;10.020;2022-08-05T12:04:19;3.60;;;3.03;;
5742;SDS011;2896;53.500;10.020;2022-08-05T12:06:46;3.40;;;2.87;;
5742;SDS011;2896;53.500;10.020;2022-08-05T12:09:12;3.87;;;3.03;;
5742;SDS011;2896;53.500;10.020;2022-08-05T12:11:44;10.20;;;3.30;;
5742;SDS011;2896;53.500;10.020;2022-08-05T12:14:11;10.40;;;3.50;;
5742;SDS011;2896;53.500;10.020;2022-08-05T12:16:39;8.50;;;3.50;;
5742;SDS011;2896;53.500;10.020;2022-08-05T12:19:07;3.23;;;2.93;;
5742;SDS011;2896;53.500;10.020;2022-08-05T12:21:41;7.73;;;3.20;;
5742;SDS011;2896;53.500;10.020;2022-08-05T12:24:11;4.97;;;2.90;;
5742;SDS011;2896;53.500;10.020;2022-08-05T12:26:40;3.13;;;2.83;;
5742;SDS011;2896;53.500;10.020;2022-08-05T12:29:09;2.70;;;2.50;;
5742;SDS011;2896;53.500;10.020;2022-08-05T12:31:38;5.13;;;3.30;;
5742;SDS011;2896;53.500;10.020;2022-08-05T12:34:06;3.30;;;3.20;;
5742;SDS011;2896;53.500;10.020;2022-08-05T12:36:34;18.53;;;3.57;;
5742;SDS011;2896;53.500;10.020;2022-08-05T12:39:02;3.50;;;3.30;;
5742;SDS011;2896;53.500;10.020;2022-08-05T12:41:29;7.00;;;3.47;;
5742;SDS011;2896;53.500;10.020;2022-08-05T12:43:57;10.70;;;3.83;;
5742;SDS011;2896;53.500;10.020;2022-08-05T12:46:26;7.87;;;3.57;;
5742;SDS011;2896;53.500;10.020;2022-08-05T12:49:00;4.07;;;3.47;;
5742;SDS011;2896;53.500;10.020;2022-08-05T12:51:30;4.33;;;3.20;;
5742;SDS011;2896;53.500;10.020;2022-08-05T12:53:57;6.53;;;3.37;;
5742;SDS011;2896;53.500;10.020;2022-08-05T12:56:26;3.70;;;3.40;;
5742;SDS011;2896;53.500;10.020;2022-08-05T13:01:39;10.60;;;3.37;;
5742;SDS011;2896;53.500;10.020;2022-08-05T13:04:09;4.77;;;3.83;;
5742;SDS011;2896;53.500;10.020;2022-08-05T13:06:37;3.77;;;2.70;;
5742;SDS011;2896;53.500;10.020;2022-08-05T13:09:08;3.60;;;3.13;;
5742;SDS011;2896;53.500;10.020;2022-08-05T13:11:37;6.17;;;3.73;;
5742;SDS011;2896;53.500;10.020;2022-08-05T13:14:09;4.50;;;2.80;;
5742;SDS011;2896;53.500;10.020;2022-08-05T13:16:51;6.13;;;3.70;;
5742;SDS011;2896;53.500;10.020;2022-08-05T13:19:21;6.67;;;4.00;;
5742;SDS011;2896;53.500;10.020;2022-08-05T13:21:49;6.73;;;3.40;;
5742;SDS011;2896;53.500;10.020;2022-08-05T13:24:16;3.40;;;3.10;;
5742;SDS011;2896;53.500;10.020;2022-08-05T13:26:44;6.33;;;3.73;;
5742;SDS011;2896;53.500;10.020;2022-08-05T13:29:12;4.60;;;3.50;;
5742;SDS011;2896;53.500;10.020;2022-08-05T13:31:39;5.90;;;3.93;;
5742;SDS011;2896;53.500;10.020;2022-08-05T13:34:07;3.97;;;3.20;;
5742;SDS011;2896;53.500;10.020;2022-08-05T13:36:35;5.17;;;3.13;;
5742;SDS011;2896;53.500;10.020;2022-08-05T13:39:02;3.30;;;2.80;;
5742;SDS011;2896;53.500;10.020;2022-08-05T13:41:30;5.37;;;3.20;;
5742;SDS011;2896;53.500;10.020;2022-08-05T13:43:57;10.03;;;3.77;;
5742;SDS011;2896;53.500;10.020;2022-08-05T13:46:23;3.33;;;3.13;;
5742;SDS011;2896;53.500;10.020;2022-08-05T13:48:51;4.80;;;2.60;;
5742;SDS011;2896;53.500;10.020;2022-08-05T13:51:24;2.70;;;2.60;;
5742;SDS011;2896;53.500;10.020;2022-08-05T13:53:54;10.50;;;2.30;;
5742;SDS011;2896;53.500;10.020;2022-08-05T13:56:21;3.30;;;2.57;;
5742;SDS011;2896;53.500;10.020;2022-08-05T13:58:48;2.03;;;1.83;;
5742;SDS011;2896;53.500;10.020;2022-08-05T14:01:14;3.37;;;1.80;;
5742;SDS011;2896;53.500;10.020;2022-08-05T14:03:41;3.30;;;1.83;;
5742;SDS011;2896;53.500;10.020;2022-08-05T14:06:08;3.53;;;1.87;;
5742;SDS011;2896;53.500;10.020;2022-08-05T14:08:33;3.53;;;1.60;;
5742;SDS011;2896;53.500;10.020;2022-08-05T14:11:01;2.00;;;1.83;;
5742;SDS011;2896;53.500;10.020;2022-08-05T14:13:28;3.03;;;2.00;;
5742;SDS011;2896;53.500;10.020;2022-08-05T14:15:55;2.07;;;1.87;;
5742;SDS011;2896;53.500;10.020;2022-08-05T14:18:21;5.63;;;2.10;;
5742;SDS011;2896;53.500;10.020;2022-08-05T14:20:48;6.40;;;2.03;;
5742;SDS011;2896;53.500;10.020;2022-08-05T14:23:15;3.10;;;1.70;;
5742;SDS011;2896;53.500;10.020;2022-08-05T14:25:41;5.00;;;2.70;;
5742;SDS011;2896;53.500;10.020;2022-08-05T14:28:09;11.00;;;2.30;;
5742;SDS011;2896;53.500;10.020;2022-08-05T14:30:36;4.53;;;1.80;;
5742;SDS011;2896;53.500;10.020;2022-08-05T14:33:02;6.30;;;1.80;;
5742;SDS011;2896;53.500;10.020;2022-08-05T14:35:29;3.90;;;2.30;;
5742;SDS011;2896;53.500;10.020;2022-08-05T14:37:56;2.00;;;1.90;;
5742;SDS011;2896;53.500;10.020;2022-08-05T14:40:22;2.97;;;2.47;;
5742;SDS011;2896;53.500;10.020;2022-08-05T14:42:49;2.57;;;2.37;;
5742;SDS011;2896;53.500;10.020;2022-08-05T14:45:17;3.13;;;1.90;;
5742;SDS011;2896;53.500;10.020;2022-08-05T14:47:44;4.30;;;2.10;;
5742;SDS011;2896;53.500;10.020;2022-08-05T14:50:10;3.40;;;1.97;;
5742;SDS011;2896;53.500;10.020;2022-08-05T14:52:37;4.10;;;2.40;;
5742;SDS011;2896;53.500;10.020;2022-08-05T14:55:04;4.50;;;2.37;;
5742;SDS011;2896;53.500;10.020;2022-08-05T14:57:32;4.87;;;2.50;;
5742;SDS011;2896;53.500;10.020;2022-08-05T14:59:59;6.63;;;3.40;;
5742;SDS011;2896;53.500;10.020;2022-08-05T15:02:27;18.23;;;3.27;;
5742;SDS011;2896;53.500;10.020;2022-08-05T15:04:53;12.47;;;3.17;;
5742;SDS011;2896;53.500;10.020;2022-08-05T15:07:20;7.17;;;2.80;;
5742;SDS011;2896;53.500;10.020;2022-08-05T15:09:47;4.73;;;3.10;;
5742;SDS011;2896;53.500;10.020;2022-08-05T15:12:13;2.33;;;2.10;;